Palo Alto Battlefield Nation, Texas
Current Conditions -  °F | °C
As of 7:53 PM on Thursday 18 Dec 2014 (Local Time) from KBRO Reporting Station
Overcast Overcast  
Wind Chill: 72°   Ceiling: 4900
Heat Index: 72°   Visibility: 9mi
Dew Point: 67°   Wind: 7mph
Humidity: 84%   Direction: 140°SE
Pressure: 29.99"   Gusts: NA
Location:  26.0002°N, 97.5729°W
Report Text: KBRO 190153Z 14006KT 9SM OVC049 22/19 A2999 RMK AO2 SLP153 T02220194
Loading
Personal Weather Stations






























Interactive Weather Map New forecast layout! Learn more

10-Day Weather Forecast

Advertisements
Track Severe Weather on mobile